Overview Statistics Trail Chart Weather Telemetry Raw packets
 

This is the latest recevied weather packets stored in our database for station/object Ostrach. If no packets are shown the sender has not sent any weather packets the latest 10 day(s).

<< 14 15 16 17 18 19 20 >>
Time Temp. Humidity Pressure Rain* Wind** Luminosity Snow
1787997730 21.67° C 63% 1015 hPa 0 mm - - -
1787995930 21.11° C 67% 1015.2 hPa 0 mm - - -
1787994130 20.56° C 68% 1015.3 hPa 0 mm - - -
1787992330 20° C 70% 1015.3 hPa 0 mm - - -
1787990530 18.33° C 75% 1015.1 hPa 0 mm - - -
1787988730 17.22° C 81% 1015.2 hPa 0 mm - - -
1787986930 16.11° C 84% 1015 hPa 0 mm - - -
1787985130 15° C 87% 1015 hPa 0 mm - - -
1787983330 14.44° C 89% 1015.1 hPa 0 mm - - -
1787981530 13.89° C 90% 1014.9 hPa 0 mm - - -
1787979730 13.89° C 90% 1014.6 hPa 0 mm - - -
1787977930 13.89° C 91% 1014.4 hPa 0 mm - - -
1787976129 13.89° C 93% 1014.3 hPa 0 mm - - -
1787974329 13.33° C 94% 1014.2 hPa 0 mm - - -
1787972530 13.33° C 93% 1014.4 hPa 0 mm - - -
1787970729 12.78° C 93% 1014.4 hPa 0 mm - - -
1787968930 13.33° C 93% 1014.5 hPa 0 mm - - -
1787967132 13.33° C 93% 1014.5 hPa 0 mm - - -
1787965329 13.33° C 91% 1014.5 hPa 0 mm - - -
1787963531 13.89° C 92% 1014.8 hPa 0 mm - - -
1787961732 13.89° C 92% 1014.7 hPa 0 mm - - -
1787959940 14.44° C 92% 1014.5 hPa 0 mm - - -
1787958131 14.44° C 92% 1014.5 hPa 0 mm - - -
1787956331 15° C 92% 1014.7 hPa 0 mm - - -
1787954531 15° C 91% 1014.5 hPa 0 mm - - -

* Rain since midnight (hover to see other rain measurements)
** Current wind speed in m/s (hover to see current wind gust speed)